sensor_id;sensor_type;location;lat;lon;timestamp;P1;durP1;ratioP1;P2;durP2;ratioP2
10343;SDS011;5217;43.960;10.954;2023-01-30T00:01:13;9.50;;;8.50;;
10343;SDS011;5217;43.960;10.954;2023-01-30T00:03:44;9.50;;;8.50;;
10343;SDS011;5217;43.960;10.954;2023-01-30T00:06:12;8.80;;;7.87;;
10343;SDS011;5217;43.960;10.954;2023-01-30T00:08:41;8.17;;;7.37;;
10343;SDS011;5217;43.960;10.954;2023-01-30T00:11:11;8.60;;;7.77;;
10343;SDS011;5217;43.960;10.954;2023-01-30T00:13:41;8.77;;;7.87;;
10343;SDS011;5217;43.960;10.954;2023-01-30T00:16:10;8.10;;;7.30;;
10343;SDS011;5217;43.960;10.954;2023-01-30T00:18:39;7.70;;;6.90;;
10343;SDS011;5217;43.960;10.954;2023-01-30T00:21:09;8.67;;;7.67;;
10343;SDS011;5217;43.960;10.954;2023-01-30T00:23:38;10.83;;;7.87;;
10343;SDS011;5217;43.960;10.954;2023-01-30T00:26:07;9.43;;;7.90;;
10343;SDS011;5217;43.960;10.954;2023-01-30T00:28:38;8.53;;;7.63;;
10343;SDS011;5217;43.960;10.954;2023-01-30T00:31:07;9.67;;;7.83;;
10343;SDS011;5217;43.960;10.954;2023-01-30T00:33:36;7.73;;;7.00;;
10343;SDS011;5217;43.960;10.954;2023-01-30T00:36:05;8.80;;;7.90;;
10343;SDS011;5217;43.960;10.954;2023-01-30T00:38:34;8.70;;;7.80;;
10343;SDS011;5217;43.960;10.954;2023-01-30T00:41:03;7.50;;;6.80;;
10343;SDS011;5217;43.960;10.954;2023-01-30T00:43:31;8.60;;;7.50;;
10343;SDS011;5217;43.960;10.954;2023-01-30T00:46:21;8.50;;;7.67;;
10343;SDS011;5217;43.960;10.954;2023-01-30T00:49:10;8.13;;;7.33;;
10343;SDS011;5217;43.960;10.954;2023-01-30T00:51:38;7.70;;;6.97;;
10343;SDS011;5217;43.960;10.954;2023-01-30T00:54:07;8.37;;;7.43;;
10343;SDS011;5217;43.960;10.954;2023-01-30T00:56:35;7.23;;;6.53;;
10343;SDS011;5217;43.960;10.954;2023-01-30T00:59:04;6.80;;;6.10;;
10343;SDS011;5217;43.960;10.954;2023-01-30T01:01:33;7.57;;;6.80;;
10343;SDS011;5217;43.960;10.954;2023-01-30T01:04:03;8.03;;;7.23;;
10343;SDS011;5217;43.960;10.954;2023-01-30T01:06:31;7.07;;;6.30;;
10343;SDS011;5217;43.960;10.954;2023-01-30T01:09:00;8.00;;;7.20;;
10343;SDS011;5217;43.960;10.954;2023-01-30T01:11:28;8.03;;;7.23;;
10343;SDS011;5217;43.960;10.954;2023-01-30T01:13:57;7.90;;;7.17;;
10343;SDS011;5217;43.960;10.954;2023-01-30T01:16:27;7.60;;;6.90;;
10343;SDS011;5217;43.960;10.954;2023-01-30T01:18:58;7.77;;;6.97;;
10343;SDS011;5217;43.960;10.954;2023-01-30T01:21:26;7.87;;;7.13;;
10343;SDS011;5217;43.960;10.954;2023-01-30T01:23:56;8.30;;;7.30;;
10343;SDS011;5217;43.960;10.954;2023-01-30T01:26:26;8.47;;;7.67;;
10343;SDS011;5217;43.960;10.954;2023-01-30T01:28:55;7.90;;;7.20;;
10343;SDS011;5217;43.960;10.954;2023-01-30T01:31:24;8.60;;;7.70;;
10343;SDS011;5217;43.960;10.954;2023-01-30T01:33:53;8.60;;;7.80;;
10343;SDS011;5217;43.960;10.954;2023-01-30T01:36:23;8.77;;;7.87;;
10343;SDS011;5217;43.960;10.954;2023-01-30T01:39:11;8.50;;;7.57;;
10343;SDS011;5217;43.960;10.954;2023-01-30T01:41:39;8.40;;;7.60;;
10343;SDS011;5217;43.960;10.954;2023-01-30T01:44:07;8.10;;;7.40;;
10343;SDS011;5217;43.960;10.954;2023-01-30T01:46:37;8.60;;;7.70;;
10343;SDS011;5217;43.960;10.954;2023-01-30T01:49:11;7.50;;;6.80;;
10343;SDS011;5217;43.960;10.954;2023-01-30T01:51:45;7.77;;;6.97;;
10343;SDS011;5217;43.960;10.954;2023-01-30T01:54:18;7.80;;;7.07;;
10343;SDS011;5217;43.960;10.954;2023-01-30T01:56:52;8.23;;;7.43;;
10343;SDS011;5217;43.960;10.954;2023-01-30T01:59:21;7.73;;;6.93;;
10343;SDS011;5217;43.960;10.954;2023-01-30T02:01:54;7.33;;;6.63;;
10343;SDS011;5217;43.960;10.954;2023-01-30T02:04:25;7.63;;;6.93;;
10343;SDS011;5217;43.960;10.954;2023-01-30T02:07:16;7.90;;;7.10;;
10343;SDS011;5217;43.960;10.954;2023-01-30T02:09:46;7.77;;;7.03;;
10343;SDS011;5217;43.960;10.954;2023-01-30T02:12:17;8.07;;;7.27;;
10343;SDS011;5217;43.960;10.954;2023-01-30T02:14:45;7.83;;;7.13;;
10343;SDS011;5217;43.960;10.954;2023-01-30T02:17:15;8.60;;;7.70;;
10343;SDS011;5217;43.960;10.954;2023-01-30T02:19:46;8.90;;;8.00;;
10343;SDS011;5217;43.960;10.954;2023-01-30T02:22:23;9.97;;;7.90;;
10343;SDS011;5217;43.960;10.954;2023-01-30T02:25:17;8.73;;;7.87;;
10343;SDS011;5217;43.960;10.954;2023-01-30T02:28:24;8.97;;;8.07;;
10343;SDS011;5217;43.960;10.954;2023-01-30T02:34:10;8.40;;;7.60;;
10343;SDS011;5217;43.960;10.954;2023-01-30T02:36:50;8.73;;;7.83;;
10343;SDS011;5217;43.960;10.954;2023-01-30T02:39:31;8.77;;;7.93;;
10343;SDS011;5217;43.960;10.954;2023-01-30T02:42:10;8.63;;;7.83;;
10343;SDS011;5217;43.960;10.954;2023-01-30T02:44:48;8.57;;;7.77;;
10343;SDS011;5217;43.960;10.954;2023-01-30T02:47:24;9.90;;;8.70;;
10343;SDS011;5217;43.960;10.954;2023-01-30T02:49:57;9.93;;;8.93;;
10343;SDS011;5217;43.960;10.954;2023-01-30T02:52:30;9.73;;;8.80;;
10343;SDS011;5217;43.960;10.954;2023-01-30T02:54:59;9.73;;;8.67;;
10343;SDS011;5217;43.960;10.954;2023-01-30T02:57:32;9.90;;;8.90;;
10343;SDS011;5217;43.960;10.954;2023-01-30T03:00:03;11.17;;;9.27;;
10343;SDS011;5217;43.960;10.954;2023-01-30T03:08:26;8.83;;;8.03;;
10343;SDS011;5217;43.960;10.954;2023-01-30T03:10:59;8.60;;;7.80;;
10343;SDS011;5217;43.960;10.954;2023-01-30T03:13:36;8.90;;;7.67;;
10343;SDS011;5217;43.960;10.954;2023-01-30T03:16:12;8.53;;;7.70;;
10343;SDS011;5217;43.960;10.954;2023-01-30T03:18:46;8.30;;;7.50;;
10343;SDS011;5217;43.960;10.954;2023-01-30T03:21:15;8.10;;;7.30;;
10343;SDS011;5217;43.960;10.954;2023-01-30T03:23:44;8.57;;;7.67;;
10343;SDS011;5217;43.960;10.954;2023-01-30T03:26:13;7.57;;;6.87;;
10343;SDS011;5217;43.960;10.954;2023-01-30T03:28:48;7.97;;;7.27;;
10343;SDS011;5217;43.960;10.954;2023-01-30T03:31:17;7.53;;;6.83;;
10343;SDS011;5217;43.960;10.954;2023-01-30T03:33:47;7.53;;;6.83;;
10343;SDS011;5217;43.960;10.954;2023-01-30T03:36:19;7.83;;;7.03;;
10343;SDS011;5217;43.960;10.954;2023-01-30T03:39:15;7.60;;;6.90;;
10343;SDS011;5217;43.960;10.954;2023-01-30T03:41:43;7.23;;;6.53;;
10343;SDS011;5217;43.960;10.954;2023-01-30T03:44:13;7.53;;;6.73;;
10343;SDS011;5217;43.960;10.954;2023-01-30T03:46:41;7.10;;;6.40;;
10343;SDS011;5217;43.960;10.954;2023-01-30T03:49:11;7.30;;;6.60;;
10343;SDS011;5217;43.960;10.954;2023-01-30T03:51:40;7.07;;;6.13;;
10343;SDS011;5217;43.960;10.954;2023-01-30T03:54:09;8.07;;;7.10;;
10343;SDS011;5217;43.960;10.954;2023-01-30T03:56:37;8.20;;;7.40;;
10343;SDS011;5217;43.960;10.954;2023-01-30T03:59:07;7.60;;;6.90;;
10343;SDS011;5217;43.960;10.954;2023-01-30T04:01:36;7.40;;;6.70;;
10343;SDS011;5217;43.960;10.954;2023-01-30T04:04:05;8.10;;;7.30;;
10343;SDS011;5217;43.960;10.954;2023-01-30T04:06:34;7.83;;;7.03;;
10343;SDS011;5217;43.960;10.954;2023-01-30T04:09:03;8.10;;;7.30;;
10343;SDS011;5217;43.960;10.954;2023-01-30T04:11:31;8.60;;;7.73;;
10343;SDS011;5217;43.960;10.954;2023-01-30T04:14:00;7.60;;;6.90;;
10343;SDS011;5217;43.960;10.954;2023-01-30T04:16:28;8.67;;;7.77;;
10343;SDS011;5217;43.960;10.954;2023-01-30T04:18:56;8.00;;;7.30;;
10343;SDS011;5217;43.960;10.954;2023-01-30T04:21:25;8.37;;;7.43;;
10343;SDS011;5217;43.960;10.954;2023-01-30T04:23:55;7.77;;;7.07;;
10343;SDS011;5217;43.960;10.954;2023-01-30T04:26:23;8.50;;;7.60;;
10343;SDS011;5217;43.960;10.954;2023-01-30T04:28:52;8.07;;;7.23;;
10343;SDS011;5217;43.960;10.954;2023-01-30T04:31:20;7.97;;;7.27;;
10343;SDS011;5217;43.960;10.954;2023-01-30T04:33:49;8.07;;;7.23;;
10343;SDS011;5217;43.960;10.954;2023-01-30T04:36:17;7.93;;;7.23;;
10343;SDS011;5217;43.960;10.954;2023-01-30T04:38:45;7.97;;;7.20;;
10343;SDS011;5217;43.960;10.954;2023-01-30T04:41:15;7.37;;;6.67;;
10343;SDS011;5217;43.960;10.954;2023-01-30T04:43:43;7.80;;;7.07;;
10343;SDS011;5217;43.960;10.954;2023-01-30T04:46:12;8.43;;;7.63;;
10343;SDS011;5217;43.960;10.954;2023-01-30T04:48:40;7.80;;;7.10;;
10343;SDS011;5217;43.960;10.954;2023-01-30T04:51:09;7.67;;;6.97;;
10343;SDS011;5217;43.960;10.954;2023-01-30T04:53:37;8.83;;;7.73;;
10343;SDS011;5217;43.960;10.954;2023-01-30T04:56:06;8.07;;;7.27;;
10343;SDS011;5217;43.960;10.954;2023-01-30T04:58:36;8.87;;;7.63;;
10343;SDS011;5217;43.960;10.954;2023-01-30T05:01:14;8.00;;;7.20;;
10343;SDS011;5217;43.960;10.954;2023-01-30T05:03:48;7.60;;;6.90;;
10343;SDS011;5217;43.960;10.954;2023-01-30T05:06:17;8.50;;;7.60;;
10343;SDS011;5217;43.960;10.954;2023-01-30T05:08:46;8.40;;;7.43;;
10343;SDS011;5217;43.960;10.954;2023-01-30T05:11:16;8.23;;;7.43;;
10343;SDS011;5217;43.960;10.954;2023-01-30T05:13:45;9.27;;;8.37;;
10343;SDS011;5217;43.960;10.954;2023-01-30T05:16:14;9.03;;;8.20;;
10343;SDS011;5217;43.960;10.954;2023-01-30T05:18:43;11.33;;;8.83;;
10343;SDS011;5217;43.960;10.954;2023-01-30T05:21:13;9.63;;;8.67;;
10343;SDS011;5217;43.960;10.954;2023-01-30T05:23:43;9.77;;;8.70;;
10343;SDS011;5217;43.960;10.954;2023-01-30T05:26:11;9.03;;;8.13;;
10343;SDS011;5217;43.960;10.954;2023-01-30T05:28:41;9.10;;;8.20;;
10343;SDS011;5217;43.960;10.954;2023-01-30T05:31:12;8.60;;;7.80;;
10343;SDS011;5217;43.960;10.954;2023-01-30T05:33:40;8.40;;;7.50;;
10343;SDS011;5217;43.960;10.954;2023-01-30T05:36:10;8.00;;;7.20;;
10343;SDS011;5217;43.960;10.954;2023-01-30T05:38:42;8.80;;;7.70;;
10343;SDS011;5217;43.960;10.954;2023-01-30T05:41:11;8.67;;;7.53;;
10343;SDS011;5217;43.960;10.954;2023-01-30T05:43:41;8.83;;;7.80;;
10343;SDS011;5217;43.960;10.954;2023-01-30T05:46:11;8.97;;;8.07;;
10343;SDS011;5217;43.960;10.954;2023-01-30T05:48:39;8.80;;;7.90;;
10343;SDS011;5217;43.960;10.954;2023-01-30T05:51:13;8.33;;;7.53;;
10343;SDS011;5217;43.960;10.954;2023-01-30T05:53:42;8.57;;;7.57;;
10343;SDS011;5217;43.960;10.954;2023-01-30T05:56:11;7.83;;;7.03;;
10343;SDS011;5217;43.960;10.954;2023-01-30T05:58:40;8.20;;;7.40;;
10343;SDS011;5217;43.960;10.954;2023-01-30T06:01:11;8.00;;;6.80;;
10343;SDS011;5217;43.960;10.954;2023-01-30T06:03:40;6.80;;;6.20;;
10343;SDS011;5217;43.960;10.954;2023-01-30T06:06:09;7.37;;;6.67;;
10343;SDS011;5217;43.960;10.954;2023-01-30T06:08:38;7.20;;;6.50;;
10343;SDS011;5217;43.960;10.954;2023-01-30T06:11:07;7.17;;;6.40;;
10343;SDS011;5217;43.960;10.954;2023-01-30T06:13:38;7.43;;;6.73;;
10343;SDS011;5217;43.960;10.954;2023-01-30T06:16:07;7.73;;;6.93;;
10343;SDS011;5217;43.960;10.954;2023-01-30T06:18:39;7.70;;;6.93;;
10343;SDS011;5217;43.960;10.954;2023-01-30T06:21:08;7.67;;;6.87;;
10343;SDS011;5217;43.960;10.954;2023-01-30T06:23:36;8.47;;;7.67;;
10343;SDS011;5217;43.960;10.954;2023-01-30T06:26:05;7.47;;;6.70;;
10343;SDS011;5217;43.960;10.954;2023-01-30T06:28:34;7.97;;;6.80;;
10343;SDS011;5217;43.960;10.954;2023-01-30T06:31:04;7.93;;;7.13;;
10343;SDS011;5217;43.960;10.954;2023-01-30T06:33:34;9.13;;;8.23;;
10343;SDS011;5217;43.960;10.954;2023-01-30T06:36:04;9.97;;;8.97;;
10343;SDS011;5217;43.960;10.954;2023-01-30T06:38:33;10.87;;;9.77;;
10343;SDS011;5217;43.960;10.954;2023-01-30T06:41:01;10.97;;;9.87;;
10343;SDS011;5217;43.960;10.954;2023-01-30T06:43:30;12.90;;;11.70;;
10343;SDS011;5217;43.960;10.954;2023-01-30T06:45:58;28.10;;;25.63;;
10343;SDS011;5217;43.960;10.954;2023-01-30T06:48:27;26.47;;;24.07;;
10343;SDS011;5217;43.960;10.954;2023-01-30T06:50:55;21.20;;;19.30;;
10343;SDS011;5217;43.960;10.954;2023-01-30T06:53:25;18.60;;;16.80;;
10343;SDS011;5217;43.960;10.954;2023-01-30T06:55:56;18.63;;;16.73;;
10343;SDS011;5217;43.960;10.954;2023-01-30T06:58:25;17.67;;;15.97;;
10343;SDS011;5217;43.960;10.954;2023-01-30T07:00:54;15.27;;;13.80;;
10343;SDS011;5217;43.960;10.954;2023-01-30T07:03:22;14.63;;;12.70;;
10343;SDS011;5217;43.960;10.954;2023-01-30T07:05:51;16.43;;;14.57;;
10343;SDS011;5217;43.960;10.954;2023-01-30T07:08:19;15.67;;;14.03;;
10343;SDS011;5217;43.960;10.954;2023-01-30T07:10:51;13.73;;;12.33;;
10343;SDS011;5217;43.960;10.954;2023-01-30T07:13:19;13.07;;;11.67;;
10343;SDS011;5217;43.960;10.954;2023-01-30T07:15:47;12.33;;;10.10;;
10343;SDS011;5217;43.960;10.954;2023-01-30T07:18:16;10.33;;;9.33;;
10343;SDS011;5217;43.960;10.954;2023-01-30T07:20:47;9.93;;;8.93;;
10343;SDS011;5217;43.960;10.954;2023-01-30T07:23:16;9.07;;;8.17;;
10343;SDS011;5217;43.960;10.954;2023-01-30T07:25:45;9.60;;;8.67;;
10343;SDS011;5217;43.960;10.954;2023-01-30T07:28:14;9.30;;;8.40;;
10343;SDS011;5217;43.960;10.954;2023-01-30T07:30:46;9.20;;;8.30;;
10343;SDS011;5217;43.960;10.954;2023-01-30T07:33:18;10.63;;;9.50;;
10343;SDS011;5217;43.960;10.954;2023-01-30T07:35:46;10.67;;;9.67;;
10343;SDS011;5217;43.960;10.954;2023-01-30T07:38:15;12.20;;;11.00;;
10343;SDS011;5217;43.960;10.954;2023-01-30T07:40:43;12.30;;;11.10;;
10343;SDS011;5217;43.960;10.954;2023-01-30T07:43:12;11.30;;;10.20;;
10343;SDS011;5217;43.960;10.954;2023-01-30T07:45:43;13.37;;;12.07;;
10343;SDS011;5217;43.960;10.954;2023-01-30T07:48:13;16.30;;;13.97;;
10343;SDS011;5217;43.960;10.954;2023-01-30T07:50:42;15.80;;;14.20;;
10343;SDS011;5217;43.960;10.954;2023-01-30T07:53:11;21.07;;;18.97;;
10343;SDS011;5217;43.960;10.954;2023-01-30T07:55:41;21.37;;;19.17;;
10343;SDS011;5217;43.960;10.954;2023-01-30T07:58:11;18.63;;;16.83;;
10343;SDS011;5217;43.960;10.954;2023-01-30T08:00:42;17.60;;;15.80;;
10343;SDS011;5217;43.960;10.954;2023-01-30T08:03:11;15.70;;;14.17;;
10343;SDS011;5217;43.960;10.954;2023-01-30T08:05:41;19.40;;;17.40;;
10343;SDS011;5217;43.960;10.954;2023-01-30T08:08:12;24.60;;;22.13;;
10343;SDS011;5217;43.960;10.954;2023-01-30T08:10:40;32.00;;;28.80;;
10343;SDS011;5217;43.960;10.954;2023-01-30T08:13:09;30.97;;;27.87;;
10343;SDS011;5217;43.960;10.954;2023-01-30T08:15:37;34.43;;;30.93;;
10343;SDS011;5217;43.960;10.954;2023-01-30T08:18:07;30.23;;;27.23;;
10343;SDS011;5217;43.960;10.954;2023-01-30T08:20:35;25.13;;;22.67;;
10343;SDS011;5217;43.960;10.954;2023-01-30T08:23:04;21.97;;;19.87;;
10343;SDS011;5217;43.960;10.954;2023-01-30T08:25:32;18.20;;;16.40;;
10343;SDS011;5217;43.960;10.954;2023-01-30T08:28:02;18.57;;;16.57;;
10343;SDS011;5217;43.960;10.954;2023-01-30T08:30:31;17.60;;;16.00;;
10343;SDS011;5217;43.960;10.954;2023-01-30T08:32:59;18.23;;;16.37;;
10343;SDS011;5217;43.960;10.954;2023-01-30T08:35:29;18.00;;;16.20;;
10343;SDS011;5217;43.960;10.954;2023-01-30T08:37:58;18.57;;;16.67;;
10343;SDS011;5217;43.960;10.954;2023-01-30T08:40:26;20.03;;;17.87;;
10343;SDS011;5217;43.960;10.954;2023-01-30T08:42:54;21.13;;;18.67;;
10343;SDS011;5217;43.960;10.954;2023-01-30T08:45:23;18.50;;;16.70;;
10343;SDS011;5217;43.960;10.954;2023-01-30T08:47:51;17.87;;;16.03;;
10343;SDS011;5217;43.960;10.954;2023-01-30T08:50:19;19.03;;;17.13;;
10343;SDS011;5217;43.960;10.954;2023-01-30T08:52:49;19.50;;;17.23;;
10343;SDS011;5217;43.960;10.954;2023-01-30T08:55:17;18.67;;;16.77;;
10343;SDS011;5217;43.960;10.954;2023-01-30T08:57:47;20.50;;;18.50;;
10343;SDS011;5217;43.960;10.954;2023-01-30T09:00:16;21.10;;;19.00;;
10343;SDS011;5217;43.960;10.954;2023-01-30T09:02:46;21.80;;;19.70;;
10343;SDS011;5217;43.960;10.954;2023-01-30T09:05:14;21.77;;;19.57;;
10343;SDS011;5217;43.960;10.954;2023-01-30T09:07:43;19.30;;;17.47;;
10343;SDS011;5217;43.960;10.954;2023-01-30T09:10:13;17.50;;;15.83;;
10343;SDS011;5217;43.960;10.954;2023-01-30T09:12:43;17.80;;;16.00;;
10343;SDS011;5217;43.960;10.954;2023-01-30T09:15:11;17.83;;;16.13;;
10343;SDS011;5217;43.960;10.954;2023-01-30T09:17:40;19.60;;;17.70;;
10343;SDS011;5217;43.960;10.954;2023-01-30T09:20:16;20.13;;;18.10;;
10343;SDS011;5217;43.960;10.954;2023-01-30T09:22:50;19.20;;;17.23;;
10343;SDS011;5217;43.960;10.954;2023-01-30T09:25:36;20.87;;;18.77;;
10343;SDS011;5217;43.960;10.954;2023-01-30T09:28:04;23.57;;;21.17;;
10343;SDS011;5217;43.960;10.954;2023-01-30T09:30:33;24.97;;;22.37;;
10343;SDS011;5217;43.960;10.954;2023-01-30T09:33:01;28.73;;;25.70;;
10343;SDS011;5217;43.960;10.954;2023-01-30T09:35:30;29.57;;;26.30;;
10343;SDS011;5217;43.960;10.954;2023-01-30T09:38:02;31.63;;;26.67;;
10343;SDS011;5217;43.960;10.954;2023-01-30T09:40:31;33.23;;;29.40;;
10343;SDS011;5217;43.960;10.954;2023-01-30T09:43:09;34.13;;;28.97;;
10343;SDS011;5217;43.960;10.954;2023-01-30T09:45:52;33.10;;;28.77;;
10343;SDS011;5217;43.960;10.954;2023-01-30T09:48:28;31.80;;;27.73;;
10343;SDS011;5217;43.960;10.954;2023-01-30T09:54:00;23.37;;;20.83;;
10343;SDS011;5217;43.960;10.954;2023-01-30T09:56:57;22.63;;;20.23;;
10343;SDS011;5217;43.960;10.954;2023-01-30T09:59:53;22.67;;;20.27;;
10343;SDS011;5217;43.960;10.954;2023-01-30T10:02:30;21.60;;;19.40;;
10343;SDS011;5217;43.960;10.954;2023-01-30T10:05:05;20.10;;;18.10;;
10343;SDS011;5217;43.960;10.954;2023-01-30T10:07:43;19.83;;;17.83;;
10343;SDS011;5217;43.960;10.954;2023-01-30T10:10:33;20.80;;;18.67;;
10343;SDS011;5217;43.960;10.954;2023-01-30T10:13:24;20.37;;;18.37;;
10343;SDS011;5217;43.960;10.954;2023-01-30T10:16:05;19.40;;;17.40;;
10343;SDS011;5217;43.960;10.954;2023-01-30T10:18:42;18.23;;;16.40;;
10343;SDS011;5217;43.960;10.954;2023-01-30T10:21:30;19.97;;;17.90;;
10343;SDS011;5217;43.960;10.954;2023-01-30T10:27:03;19.67;;;17.67;;
10343;SDS011;5217;43.960;10.954;2023-01-30T10:29:37;18.20;;;16.33;;
10343;SDS011;5217;43.960;10.954;2023-01-30T10:32:11;18.10;;;16.33;;
10343;SDS011;5217;43.960;10.954;2023-01-30T10:34:44;17.37;;;15.67;;
10343;SDS011;5217;43.960;10.954;2023-01-30T10:37:17;16.03;;;14.43;;
10343;SDS011;5217;43.960;10.954;2023-01-30T10:39:53;15.20;;;13.70;;
10343;SDS011;5217;43.960;10.954;2023-01-30T10:42:27;15.87;;;14.37;;
10343;SDS011;5217;43.960;10.954;2023-01-30T10:45:05;14.83;;;13.43;;
10343;SDS011;5217;43.960;10.954;2023-01-30T10:47:43;13.73;;;12.47;;
10343;SDS011;5217;43.960;10.954;2023-01-30T10:50:22;15.00;;;13.53;;
10343;SDS011;5217;43.960;10.954;2023-01-30T10:52:56;14.47;;;13.03;;
10343;SDS011;5217;43.960;10.954;2023-01-30T10:55:34;14.33;;;13.00;;
10343;SDS011;5217;43.960;10.954;2023-01-30T10:58:09;13.97;;;12.63;;
10343;SDS011;5217;43.960;10.954;2023-01-30T11:00:45;13.10;;;11.80;;
10343;SDS011;5217;43.960;10.954;2023-01-30T11:03:25;13.87;;;12.57;;
10343;SDS011;5217;43.960;10.954;2023-01-30T11:06:01;14.10;;;12.80;;
10343;SDS011;5217;43.960;10.954;2023-01-30T11:08:34;14.17;;;12.67;;
10343;SDS011;5217;43.960;10.954;2023-01-30T11:13:59;15.33;;;13.90;;
10343;SDS011;5217;43.960;10.954;2023-01-30T11:16:29;15.93;;;14.43;;
10343;SDS011;5217;43.960;10.954;2023-01-30T11:19:01;14.10;;;12.60;;
10343;SDS011;5217;43.960;10.954;2023-01-30T11:21:46;13.60;;;12.27;;
10343;SDS011;5217;43.960;10.954;2023-01-30T11:24:18;14.07;;;12.57;;
10343;SDS011;5217;43.960;10.954;2023-01-30T11:26:47;13.70;;;12.30;;
10343;SDS011;5217;43.960;10.954;2023-01-30T11:29:23;13.47;;;12.17;;
10343;SDS011;5217;43.960;10.954;2023-01-30T11:32:00;13.67;;;12.37;;
10343;SDS011;5217;43.960;10.954;2023-01-30T11:34:31;14.30;;;12.90;;
10343;SDS011;5217;43.960;10.954;2023-01-30T11:37:11;14.90;;;13.50;;
10343;SDS011;5217;43.960;10.954;2023-01-30T11:39:47;23.33;;;21.07;;
10343;SDS011;5217;43.960;10.954;2023-01-30T11:42:18;19.87;;;17.90;;
10343;SDS011;5217;43.960;10.954;2023-01-30T11:44:57;16.60;;;15.00;;
10343;SDS011;5217;43.960;10.954;2023-01-30T11:47:47;15.00;;;13.60;;
10343;SDS011;5217;43.960;10.954;2023-01-30T11:50:32;13.90;;;12.60;;
10343;SDS011;5217;43.960;10.954;2023-01-30T11:53:13;13.10;;;11.73;;
10343;SDS011;5217;43.960;10.954;2023-01-30T11:55:53;12.70;;;11.50;;
10343;SDS011;5217;43.960;10.954;2023-01-30T11:58:33;12.57;;;11.43;;
10343;SDS011;5217;43.960;10.954;2023-01-30T12:01:03;12.67;;;11.33;;
10343;SDS011;5217;43.960;10.954;2023-01-30T12:03:31;13.33;;;12.13;;
10343;SDS011;5217;43.960;10.954;2023-01-30T12:06:01;13.03;;;11.83;;
10343;SDS011;5217;43.960;10.954;2023-01-30T12:08:34;13.47;;;12.17;;
10343;SDS011;5217;43.960;10.954;2023-01-30T12:11:22;13.37;;;12.10;;
10343;SDS011;5217;43.960;10.954;2023-01-30T12:13:53;13.40;;;12.20;;
10343;SDS011;5217;43.960;10.954;2023-01-30T12:16:27;12.77;;;11.57;;
10343;SDS011;5217;43.960;10.954;2023-01-30T12:19:11;12.43;;;11.27;;
10343;SDS011;5217;43.960;10.954;2023-01-30T12:21:54;12.00;;;10.90;;
10343;SDS011;5217;43.960;10.954;2023-01-30T12:24:27;16.80;;;15.03;;
10343;SDS011;5217;43.960;10.954;2023-01-30T12:27:01;18.20;;;16.50;;
10343;SDS011;5217;43.960;10.954;2023-01-30T12:29:35;15.27;;;13.73;;
10343;SDS011;5217;43.960;10.954;2023-01-30T12:32:10;13.43;;;12.23;;
10343;SDS011;5217;43.960;10.954;2023-01-30T12:34:41;14.43;;;13.03;;
10343;SDS011;5217;43.960;10.954;2023-01-30T12:37:18;13.50;;;12.27;;
10343;SDS011;5217;43.960;10.954;2023-01-30T12:40:02;12.50;;;11.33;;
10343;SDS011;5217;43.960;10.954;2023-01-30T12:42:45;12.97;;;11.67;;
10343;SDS011;5217;43.960;10.954;2023-01-30T12:45:34;11.80;;;10.77;;
10343;SDS011;5217;43.960;10.954;2023-01-30T12:48:24;14.50;;;13.10;;
10343;SDS011;5217;43.960;10.954;2023-01-30T12:51:17;13.50;;;12.20;;
10343;SDS011;5217;43.960;10.954;2023-01-30T12:54:06;12.80;;;11.50;;
10343;SDS011;5217;43.960;10.954;2023-01-30T12:56:51;12.20;;;11.10;;
10343;SDS011;5217;43.960;10.954;2023-01-30T12:59:28;11.77;;;10.67;;
10343;SDS011;5217;43.960;10.954;2023-01-30T13:02:13;11.20;;;10.10;;
10343;SDS011;5217;43.960;10.954;2023-01-30T13:05:00;10.67;;;9.67;;
10343;SDS011;5217;43.960;10.954;2023-01-30T13:07:44;11.43;;;10.33;;
10343;SDS011;5217;43.960;10.954;2023-01-30T13:10:20;11.73;;;10.63;;
10343;SDS011;5217;43.960;10.954;2023-01-30T13:13:01;13.20;;;12.00;;
10343;SDS011;5217;43.960;10.954;2023-01-30T13:15:37;13.27;;;12.07;;
10343;SDS011;5217;43.960;10.954;2023-01-30T13:18:12;15.00;;;13.53;;
10343;SDS011;5217;43.960;10.954;2023-01-30T13:20:49;18.37;;;16.57;;
10343;SDS011;5217;43.960;10.954;2023-01-30T13:23:28;18.83;;;17.03;;
10343;SDS011;5217;43.960;10.954;2023-01-30T13:26:07;18.90;;;17.07;;
10343;SDS011;5217;43.960;10.954;2023-01-30T13:28:39;18.57;;;16.67;;
10343;SDS011;5217;43.960;10.954;2023-01-30T13:31:13;19.10;;;17.17;;
10343;SDS011;5217;43.960;10.954;2023-01-30T13:33:44;17.40;;;15.67;;
10343;SDS011;5217;43.960;10.954;2023-01-30T13:36:16;18.93;;;17.03;;
10343;SDS011;5217;43.960;10.954;2023-01-30T13:38:54;17.80;;;15.90;;
10343;SDS011;5217;43.960;10.954;2023-01-30T13:41:30;18.40;;;16.60;;
10343;SDS011;5217;43.960;10.954;2023-01-30T13:44:02;17.63;;;15.83;;
10343;SDS011;5217;43.960;10.954;2023-01-30T13:46:40;17.30;;;15.47;;
10343;SDS011;5217;43.960;10.954;2023-01-30T13:49:10;17.17;;;15.53;;
10343;SDS011;5217;43.960;10.954;2023-01-30T13:51:46;16.30;;;14.70;;
10343;SDS011;5217;43.960;10.954;2023-01-30T13:57:18;16.00;;;14.47;;
10343;SDS011;5217;43.960;10.954;2023-01-30T14:00:08;16.80;;;15.10;;
10343;SDS011;5217;43.960;10.954;2023-01-30T14:06:00;19.97;;;17.97;;
10343;SDS011;5217;43.960;10.954;2023-01-30T14:08:38;18.67;;;16.87;;
10343;SDS011;5217;43.960;10.954;2023-01-30T14:11:24;19.53;;;17.63;;
10343;SDS011;5217;43.960;10.954;2023-01-30T14:14:02;18.83;;;16.93;;
10343;SDS011;5217;43.960;10.954;2023-01-30T14:16:47;17.97;;;16.27;;
10343;SDS011;5217;43.960;10.954;2023-01-30T14:19:28;17.23;;;15.53;;
10343;SDS011;5217;43.960;10.954;2023-01-30T14:22:01;17.60;;;15.80;;
10343;SDS011;5217;43.960;10.954;2023-01-30T14:24:31;18.63;;;16.83;;
10343;SDS011;5217;43.960;10.954;2023-01-30T14:27:00;18.00;;;16.07;;
10343;SDS011;5217;43.960;10.954;2023-01-30T14:29:53;17.80;;;16.10;;
10343;SDS011;5217;43.960;10.954;2023-01-30T14:32:49;16.67;;;15.07;;
10343;SDS011;5217;43.960;10.954;2023-01-30T14:35:21;16.83;;;15.23;;
10343;SDS011;5217;43.960;10.954;2023-01-30T14:43:47;17.60;;;15.90;;
10343;SDS011;5217;43.960;10.954;2023-01-30T14:49:30;17.03;;;15.43;;
10343;SDS011;5217;43.960;10.954;2023-01-30T14:51:59;18.70;;;16.83;;
10343;SDS011;5217;43.960;10.954;2023-01-30T14:54:33;18.80;;;16.90;;
10343;SDS011;5217;43.960;10.954;2023-01-30T14:57:16;18.17;;;16.37;;
10343;SDS011;5217;43.960;10.954;2023-01-30T14:59:49;17.97;;;16.17;;
10343;SDS011;5217;43.960;10.954;2023-01-30T15:02:42;16.40;;;14.80;;
10343;SDS011;5217;43.960;10.954;2023-01-30T15:05:17;15.80;;;14.30;;
10343;SDS011;5217;43.960;10.954;2023-01-30T15:07:48;16.67;;;15.17;;
10343;SDS011;5217;43.960;10.954;2023-01-30T15:10:22;18.17;;;16.37;;
10343;SDS011;5217;43.960;10.954;2023-01-30T15:13:14;16.90;;;15.20;;
10343;SDS011;5217;43.960;10.954;2023-01-30T15:16:21;16.63;;;15.03;;
10343;SDS011;5217;43.960;10.954;2023-01-30T15:19:25;18.40;;;16.70;;
10343;SDS011;5217;43.960;10.954;2023-01-30T15:22:12;18.03;;;16.33;;
10343;SDS011;5217;43.960;10.954;2023-01-30T15:28:05;18.17;;;15.33;;
10343;SDS011;5217;43.960;10.954;2023-01-30T15:30:54;17.30;;;15.60;;
10343;SDS011;5217;43.960;10.954;2023-01-30T15:33:31;16.97;;;15.37;;
10343;SDS011;5217;43.960;10.954;2023-01-30T15:36:01;16.87;;;15.20;;
10343;SDS011;5217;43.960;10.954;2023-01-30T15:38:45;18.90;;;16.87;;
10343;SDS011;5217;43.960;10.954;2023-01-30T15:41:21;21.73;;;19.53;;
10343;SDS011;5217;43.960;10.954;2023-01-30T15:50:09;25.10;;;22.53;;
10343;SDS011;5217;43.960;10.954;2023-01-30T15:52:39;25.23;;;22.53;;